Time;durP1;ratioP1;P1;durP2;ratioP2;P2;SDS_P1;SDS_P2;PMS_P1;PMS_P2;Temp;Humidity;BMP_temperature;BMP_pressure;BME280_temperature;BME280_humidity;BME280_pressure;Samples;Min_cycle;Max_cycle;Signal;HPM_P1;HPM_P2
2024/02/05 00:00:06;;;;;;;2.90;1.40;;;;;;;4.53;81.65;97246.33;105539;1254;73712;-26
2024/02/05 00:02:38;;;;;;;2.70;1.50;;;;;;;4.79;80.36;97238.39;105509;1257;74345;-26
2024/02/05 00:05:07;;;;;;;2.40;1.30;;;;;;;4.67;80.55;97243.06;105500;1259;72514;-26
2024/02/05 00:07:34;;;;;;;2.80;1.40;;;;;;;4.46;81.49;97239.85;105650;1252;61086;-26
2024/02/05 00:10:05;;;;;;;6.30;1.80;;;;;;;4.35;82.13;97241.29;105650;1254;61279;-26
2024/02/05 00:12:32;;;;;;;3.60;1.50;;;;;;;4.58;80.80;97225.39;105931;1256;73691;-26
2024/02/05 00:15:00;;;;;;;4.60;1.90;;;;;;;4.82;79.73;97239.34;105651;1254;74379;-30
2024/02/05 00:17:27;;;;;;;3.60;1.60;;;;;;;4.72;79.26;97220.05;105596;1254;72497;-26
2024/02/05 00:19:54;;;;;;;4.90;1.80;;;;;;;4.62;79.28;97220.75;105480;1254;61030;-26
2024/02/05 00:22:21;;;;;;;5.90;1.90;;;;;;;4.53;80.06;97236.98;105568;1259;61122;-26
2024/02/05 00:24:48;;;;;;;4.70;2.00;;;;;;;4.82;78.32;97223.88;105683;1254;73799;-26
2024/02/05 00:27:15;;;;;;;3.90;1.20;;;;;;;5.00;77.85;97232.98;105576;1254;74127;-26
2024/02/05 00:29:42;;;;;;;3.70;2.00;;;;;;;4.89;77.59;97201.56;105334;1254;72435;-26
2024/02/05 00:32:09;;;;;;;2.90;1.20;;;;;;;4.74;78.27;97221.94;105605;1252;61771;-26
2024/02/05 00:34:37;;;;;;;2.90;1.50;;;;;;;4.62;79.14;97225.90;105580;1256;61122;-26
2024/02/05 00:37:05;;;;;;;5.10;1.60;;;;;;;4.86;78.14;97225.93;105581;1254;73669;-27
2024/02/05 00:39:32;;;;;;;4.10;1.50;;;;;;;5.04;77.22;97224.06;105516;1254;74376;-27
2024/02/05 00:41:59;;;;;;;4.30;1.50;;;;;;;4.96;76.89;97193.45;105619;1253;71548;-27
2024/02/05 00:44:25;;;;;;;4.00;1.80;;;;;;;4.84;77.63;97209.98;105612;1256;61068;-28
2024/02/05 00:46:53;;;;;;;2.00;1.40;;;;;;;4.59;78.28;97199.33;105541;1253;61148;-28
2024/02/05 00:49:20;;;;;;;4.90;1.70;;;;;;;4.90;76.58;97199.29;105521;1254;73814;-28
2024/02/05 00:51:47;;;;;;;5.30;1.80;;;;;;;5.09;75.81;97192.42;105536;1258;74312;-28
2024/02/05 00:54:14;;;;;;;5.00;1.80;;;;;;;5.06;75.83;97196.14;105561;1256;73154;-28
2024/02/05 00:56:41;;;;;;;4.20;1.70;;;;;;;4.91;75.99;97185.81;105575;1252;61129;-28
2024/02/05 00:59:08;;;;;;;3.30;1.30;;;;;;;4.87;75.27;97180.25;105595;1256;61093;-28
2024/02/05 01:01:35;;;;;;;3.80;1.60;;;;;;;4.97;74.16;97171.64;105524;1253;73808;-28
2024/02/05 01:04:03;;;;;;;3.20;1.20;;;;;;;5.30;72.83;97181.13;105580;1254;74883;-28
2024/02/05 01:06:30;;;;;;;3.20;1.50;;;;;;;5.34;72.33;97186.42;105501;1254;72626;-28
2024/02/05 01:08:58;;;;;;;5.70;2.00;;;;;;;5.17;72.87;97183.83;105480;1254;62577;-28
2024/02/05 01:11:25;;;;;;;3.30;1.20;;;;;;;5.06;73.10;97173.09;105585;1252;61175;-28
2024/02/05 01:13:52;;;;;;;5.60;1.70;;;;;;;4.93;73.91;97163.97;105560;1254;73608;-28
2024/02/05 01:16:19;;;;;;;2.00;1.10;;;;;;;5.05;73.18;97154.59;105653;1254;74036;-28
2024/02/05 01:18:47;;;;;;;6.30;1.60;;;;;;;5.38;71.75;97155.30;105551;1254;72665;-28
2024/02/05 01:21:14;;;;;;;3.60;1.50;;;;;;;5.34;71.49;97144.52;105516;1254;61681;-28
2024/02/05 01:23:42;;;;;;;2.60;1.40;;;;;;;5.24;71.87;97134.38;105439;1259;61227;-28
2024/02/05 01:26:09;;;;;;;3.10;1.30;;;;;;;5.13;72.00;97122.98;105462;1254;72752;-28
2024/02/05 01:28:36;;;;;;;3.00;1.30;;;;;;;5.04;72.52;97117.77;105531;1255;74312;-28
2024/02/05 01:31:06;;;;;;;4.40;1.40;;;;;;;5.32;71.52;97125.25;105556;1254;72365;-28
2024/02/05 01:33:34;;;;;;;4.50;1.20;;;;;;;5.51;70.04;97098.96;105349;1254;61074;-28
2024/02/05 01:36:01;;;;;;;2.10;1.40;;;;;;;5.47;70.03;97116.79;105432;1252;60991;-28
2024/02/05 01:38:28;;;;;;;2.80;1.50;;;;;;;5.34;70.41;97118.00;105534;1256;73792;-28
2024/02/05 01:40:55;;;;;;;5.00;1.60;;;;;;;5.25;70.54;97094.72;105559;1254;74294;-28
2024/02/05 01:43:22;;;;;;;1.60;1.00;;;;;;;5.14;70.88;97098.24;105635;1254;72626;-28
2024/02/05 01:45:49;;;;;;;4.70;1.90;;;;;;;5.17;71.36;97120.49;105490;1252;61148;-28
2024/02/05 01:48:18;;;;;;;1.90;1.30;;;;;;;5.53;69.78;97108.86;105520;1257;61167;-28
2024/02/05 01:50:46;;;;;;;4.60;1.50;;;;;;;5.66;69.28;97113.04;105666;1254;73673;-28
2024/02/05 01:53:13;;;;;;;2.50;1.10;;;;;;;5.51;69.30;97096.17;105634;1254;74785;-28
2024/02/05 01:55:40;;;;;;;1.60;1.10;;;;;;;5.37;70.27;97133.88;105493;1259;72687;-28
2024/02/05 01:58:07;;;;;;;1.90;1.20;;;;;;;5.31;70.29;97131.55;105471;1254;61093;-28
2024/02/05 02:00:34;;;;;;;4.40;1.30;;;;;;;5.24;71.11;97135.08;105554;1257;61102;-28
2024/02/05 02:03:01;;;;;;;4.80;1.20;;;;;;;5.39;70.62;97115.61;105632;1254;73856;-28
2024/02/05 02:05:28;;;;;;;2.40;1.10;;;;;;;5.65;69.83;97119.30;105840;1255;74350;-28
2024/02/05 02:07:56;;;;;;;1.80;1.10;;;;;;;5.64;69.54;97101.80;105674;1259;72638;-28
2024/02/05 02:10:23;;;;;;;2.90;1.10;;;;;;;5.54;70.11;97129.91;105644;1259;61081;-28
2024/02/05 02:12:50;;;;;;;3.20;1.60;;;;;;;5.39;70.96;97135.48;105499;1254;61173;-28
2024/02/05 02:15:17;;;;;;;1.80;1.20;;;;;;;5.14;71.33;97102.41;105662;1254;73707;-28
2024/02/05 02:17:45;;;;;;;4.30;1.20;;;;;;;5.08;72.14;97112.04;105372;1259;74853;-28
2024/02/05 02:20:12;;;;;;;4.20;1.00;;;;;;;5.38;71.24;97127.27;105522;1252;71442;-28
2024/02/05 02:22:39;;;;;;;2.30;1.20;;;;;;;5.62;70.35;97128.20;105768;1254;62875;-28
2024/02/05 02:25:07;;;;;;;1.50;1.00;;;;;;;5.55;70.53;97113.15;105554;1257;61086;-28
2024/02/05 02:27:34;;;;;;;1.90;1.10;;;;;;;5.39;70.99;97104.64;105601;1254;74776;-28
2024/02/05 02:30:02;;;;;;;4.00;1.50;;;;;;;5.14;71.98;97104.41;105577;1254;74285;-28
2024/02/05 02:32:42;;;;;;;4.10;1.10;;;;;;;5.07;72.66;97124.03;105601;1254;72608;-27
2024/02/05 02:35:25;;;;;;;1.30;0.90;;;;;;;5.51;71.38;97130.96;105518;1254;61106;-28
2024/02/05 02:38:08;;;;;;;2.30;1.40;;;;;;;5.41;71.79;97135.26;105507;1257;61166;-28
2024/02/05 02:40:35;;;;;;;2.70;1.10;;;;;;;5.29;72.17;97128.92;105431;1254;74398;-28
2024/02/05 02:43:03;;;;;;;2.80;1.20;;;;;;;5.21;72.64;97120.92;105585;1254;74288;-28
2024/02/05 02:45:31;;;;;;;2.20;1.10;;;;;;;5.07;73.33;97098.88;105501;1254;72604;-28
2024/02/05 02:47:58;;;;;;;1.70;0.90;;;;;;;5.29;73.34;97123.41;105498;1254;61112;-28
2024/02/05 02:50:26;;;;;;;2.60;1.10;;;;;;;5.46;73.11;97123.94;105565;1256;61095;-28
2024/02/05 02:52:53;;;;;;;4.20;1.80;;;;;;;5.37;73.56;97114.64;105645;1255;74349;-28
2024/02/05 02:55:20;;;;;;;4.20;1.40;;;;;;;5.14;74.75;97113.02;105561;1254;74897;-28
2024/02/05 02:57:48;;;;;;;2.20;1.00;;;;;;;4.85;76.59;97089.35;105439;1259;72339;-25
2024/02/05 03:00:16;;;;;;;3.20;1.00;;;;;;;4.90;77.47;97099.55;105588;1258;61049;-25
2024/02/05 03:02:43;;;;;;;3.20;1.20;;;;;;;4.99;77.50;97105.45;105544;1252;61324;-25
2024/02/05 03:05:11;;;;;;;2.50;0.80;;;;;;;4.96;78.18;97097.59;105546;1254;74415;-26
2024/02/05 03:07:38;;;;;;;1.30;1.00;;;;;;;4.84;78.65;97094.87;105582;1256;74531;-26
2024/02/05 03:10:06;;;;;;;0.90;0.80;;;;;;;4.60;79.93;97088.90;105473;1254;72536;-26
2024/02/05 03:12:34;;;;;;;3.00;1.30;;;;;;;4.80;79.21;97084.90;105552;1254;60985;-26
2024/02/05 03:15:01;;;;;;;2.10;0.90;;;;;;;4.90;78.98;97072.19;105509;1260;61250;-26
2024/02/05 03:17:29;;;;;;;3.50;0.90;;;;;;;4.74;79.27;97053.67;105685;1254;72789;-26
2024/02/05 03:19:56;;;;;;;2.70;1.40;;;;;;;4.50;81.17;97063.66;105551;1256;73243;-27
2024/02/05 03:22:23;;;;;;;1.30;0.70;;;;;;;4.45;81.57;97062.58;105522;1254;72771;-25
2024/02/05 03:24:50;;;;;;;1.40;0.90;;;;;;;4.72;80.92;97056.96;105481;1254;61159;-26
2024/02/05 03:27:18;;;;;;;1.20;0.80;;;;;;;4.62;81.57;97083.59;105533;1252;61175;-26
2024/02/05 03:29:45;;;;;;;1.60;1.00;;;;;;;4.47;81.95;97075.27;105644;1253;73906;-26
2024/02/05 03:32:12;;;;;;;1.50;1.10;;;;;;;4.45;82.93;97072.86;105712;1254;74450;-26
2024/02/05 03:34:39;;;;;;;1.70;1.00;;;;;;;4.71;81.43;97068.20;105557;1254;72664;-27
2024/02/05 03:37:07;;;;;;;2.40;1.10;;;;;;;4.57;81.93;97054.14;105668;1257;61175;-27
2024/02/05 03:39:34;;;;;;;1.50;1.00;;;;;;;4.43;83.58;97066.01;105803;1254;61186;-27
2024/02/05 03:42:01;;;;;;;3.30;1.10;;;;;;;4.40;83.82;97049.80;105797;1254;73627;-27
2024/02/05 03:44:28;;;;;;;1.40;1.00;;;;;;;4.52;83.99;97071.91;105822;1257;74261;-27
2024/02/05 03:46:55;;;;;;;1.40;1.00;;;;;;;4.69;83.41;97069.13;105527;1254;72668;-27
2024/02/05 03:49:22;;;;;;;4.60;1.00;;;;;;;4.51;83.44;97043.51;105541;1254;60975;-29
2024/02/05 03:51:49;;;;;;;2.30;1.00;;;;;;;4.37;84.58;97063.15;105496;1259;61238;-28
2024/02/05 03:54:16;;;;;;;2.10;1.10;;;;;;;4.74;83.59;97077.42;105555;1254;74376;-28
2024/02/05 03:56:44;;;;;;;2.40;1.20;;;;;;;4.76;83.00;97065.23;105543;1254;74734;-28
2024/02/05 03:59:13;;;;;;;1.80;1.30;;;;;;;4.58;83.14;97043.08;105496;1259;72487;-28
2024/02/05 04:01:42;;;;;;;3.30;1.10;;;;;;;4.45;83.07;97045.73;105511;1256;61067;-28
2024/02/05 04:04:10;;;;;;;3.50;1.50;;;;;;;4.78;81.91;97031.52;105532;1252;61298;-28
2024/02/05 04:06:38;;;;;;;2.70;1.30;;;;;;;4.91;80.55;97043.25;105610;1257;72500;-28
2024/02/05 04:09:07;;;;;;;2.90;1.30;;;;;;;4.82;80.09;97043.02;105669;1254;74330;-28
2024/02/05 04:11:37;;;;;;;2.30;0.80;;;;;;;4.68;79.98;97021.18;105501;1254;72641;-28
2024/02/05 04:14:04;;;;;;;1.50;0.80;;;;;;;4.82;80.02;97021.03;105600;1253;61084;-28
2024/02/05 04:16:31;;;;;;;2.70;1.00;;;;;;;5.06;79.02;97024.89;105535;1257;61144;-28
2024/02/05 04:18:59;;;;;;;4.80;0.90;;;;;;;5.02;78.21;97000.46;105529;1254;73656;-28
2024/02/05 04:21:26;;;;;;;1.20;0.80;;;;;;;4.97;78.63;96996.48;105545;1257;74224;-29
2024/02/05 04:23:53;;;;;;;3.90;1.20;;;;;;;4.74;79.45;97006.55;105472;1259;73269;-28
2024/02/05 04:26:20;;;;;;;2.20;1.10;;;;;;;4.90;78.95;97005.14;105529;1253;61146;-28
2024/02/05 04:28:48;;;;;;;1.40;0.90;;;;;;;5.13;77.79;96992.27;105506;1259;61167;-28
2024/02/05 04:31:15;;;;;;;1.80;1.30;;;;;;;5.10;77.46;97013.66;105584;1254;73960;-29
2024/02/05 04:33:43;;;;;;;2.50;0.90;;;;;;;4.89;78.27;96988.16;105557;1256;74323;-28
2024/02/05 04:36:15;;;;;;;3.50;1.20;;;;;;;4.84;78.65;96992.64;105771;1254;72717;-28
2024/02/05 04:38:43;;;;;;;1.80;1.00;;;;;;;5.03;78.02;96994.48;105685;1259;60999;-28
2024/02/05 04:41:11;;;;;;;2.10;1.10;;;;;;;5.12;77.17;96983.70;105648;1259;61220;-28
2024/02/05 04:43:41;;;;;;;2.00;0.90;;;;;;;5.04;77.28;96976.70;105712;1254;73637;-28
2024/02/05 04:46:09;;;;;;;1.00;0.70;;;;;;;4.93;77.77;96976.48;105697;1258;74393;-28
2024/02/05 04:48:37;;;;;;;1.00;0.90;;;;;;;4.82;78.41;96973.85;105762;1254;71178;-28
2024/02/05 04:51:11;;;;;;;2.00;1.00;;;;;;;5.27;76.91;96981.31;105582;1254;61161;-27
2024/02/05 04:53:39;;;;;;;2.10;1.10;;;;;;;5.30;76.09;96986.34;105386;1259;61166;-27
2024/02/05 04:56:07;;;;;;;1.80;1.10;;;;;;;5.05;76.90;96953.23;105501;1254;73912;-28
2024/02/05 04:58:34;;;;;;;1.30;0.90;;;;;;;4.94;77.59;96947.37;105582;1256;74428;-26
2024/02/05 05:01:02;;;;;;;2.50;0.70;;;;;;;5.07;77.02;96947.38;105578;1254;72524;-26
2024/02/05 05:03:33;;;;;;;2.40;0.90;;;;;;;5.36;76.03;96955.09;105618;1254;61088;-29
2024/02/05 05:06:00;;;;;;;1.60;0.70;;;;;;;5.18;76.31;96938.82;105727;1259;61135;-28
2024/02/05 05:08:28;;;;;;;2.00;1.10;;;;;;;5.03;76.96;96935.20;105711;1254;73606;-27
2024/02/05 05:10:55;;;;;;;1.50;0.80;;;;;;;4.96;77.51;96958.52;105549;1256;74545;-27
2024/02/05 05:13:22;;;;;;;1.20;0.80;;;;;;;5.29;76.29;96956.36;105569;1254;72612;-27
2024/02/05 05:15:49;;;;;;;1.50;1.00;;;;;;;5.51;75.46;96959.11;105524;1254;61164;-28
2024/02/05 05:18:17;;;;;;;1.10;0.90;;;;;;;5.34;75.88;96932.86;105536;1252;61093;-28
2024/02/05 05:20:44;;;;;;;1.80;1.20;;;;;;;5.18;76.16;96934.02;105544;1253;73721;-28
2024/02/05 05:23:11;;;;;;;1.70;1.00;;;;;;;5.01;76.92;96929.21;105688;1256;74433;-28
2024/02/05 05:25:38;;;;;;;1.20;0.70;;;;;;;5.11;76.59;96918.98;105536;1254;73191;-28
2024/02/05 05:28:07;;;;;;;2.80;0.90;;;;;;;5.38;75.67;96935.05;105541;1254;61175;-28
2024/02/05 05:30:35;;;;;;;1.40;0.90;;;;;;;5.33;76.13;96920.02;105590;1252;61218;-27
2024/02/05 05:33:02;;;;;;;2.40;1.10;;;;;;;5.16;76.71;96922.24;105558;1256;73696;-27
2024/02/05 05:35:29;;;;;;;2.50;1.00;;;;;;;4.97;77.33;96919.38;105556;1254;74359;-27
2024/02/05 05:37:56;;;;;;;1.40;0.90;;;;;;;5.12;76.43;96898.96;105494;1253;72465;-29
2024/02/05 05:40:23;;;;;;;0.80;0.70;;;;;;;5.38;74.98;96911.95;105875;1254;61141;-29
2024/02/05 05:42:51;;;;;;;1.10;0.80;;;;;;;5.46;74.74;96907.12;105879;1257;61589;-28
2024/02/05 05:45:19;;;;;;;1.40;0.90;;;;;;;5.25;74.62;96894.35;105681;1254;73668;-29
2024/02/05 05:47:47;;;;;;;1.10;0.80;;;;;;;5.10;75.59;96890.91;105602;1257;74121;-29
2024/02/05 05:50:15;;;;;;;1.50;0.80;;;;;;;5.21;74.95;96903.21;105358;1254;72487;-28
2024/02/05 05:52:43;;;;;;;1.90;1.00;;;;;;;5.43;73.56;96895.70;105555;1254;61129;-27
2024/02/05 05:55:10;;;;;;;1.80;0.80;;;;;;;5.60;73.08;96900.84;105615;1254;61089;-28
2024/02/05 05:57:37;;;;;;;2.30;1.00;;;;;;;5.37;73.82;96877.15;105538;1254;73797;-28
2024/02/05 06:00:05;;;;;;;2.50;0.90;;;;;;;5.23;74.72;96902.05;105550;1254;74171;-27
2024/02/05 06:02:33;;;;;;;1.30;0.70;;;;;;;5.18;75.52;96868.80;105508;1254;72561;-28
2024/02/05 06:05:00;;;;;;;1.20;0.80;;;;;;;5.38;74.82;96891.35;105647;1254;61134;-29
2024/02/05 06:07:27;;;;;;;1.00;0.80;;;;;;;5.43;74.36;96891.73;105598;1257;61176;-27
2024/02/05 06:09:55;;;;;;;1.00;0.70;;;;;;;5.40;74.70;96891.86;105342;1254;74334;-27
2024/02/05 06:12:22;;;;;;;1.30;0.70;;;;;;;5.26;75.11;96894.59;105530;1257;74113;-27
2024/02/05 06:14:49;;;;;;;0.80;0.70;;;;;;;5.23;75.28;96896.71;105557;1254;72644;-27
2024/02/05 06:17:16;;;;;;;1.80;1.00;;;;;;;5.49;73.85;96873.63;105543;1256;61062;-27
2024/02/05 06:19:43;;;;;;;1.50;0.90;;;;;;;5.67;73.42;96889.77;105607;1256;61150;-27
2024/02/05 06:22:12;;;;;;;7.20;1.20;;;;;;;5.48;73.75;96872.02;105837;1254;74351;-29
2024/02/05 06:24:41;;;;;;;2.70;1.00;;;;;;;5.33;75.04;96887.45;105681;1254;72988;-27
2024/02/05 06:27:10;;;;;;;1.30;0.70;;;;;;;5.18;76.83;96902.11;105731;1254;72465;-27
2024/02/05 06:29:37;;;;;;;1.70;1.10;;;;;;;5.49;75.61;96882.56;105524;1254;61266;-28
2024/02/05 06:32:06;;;;;;;0.90;0.80;;;;;;;5.50;75.15;96886.61;105494;1259;61157;-27
2024/02/05 06:34:33;;;;;;;0.70;0.70;;;;;;;5.44;75.49;96888.41;105526;1259;73805;-28
2024/02/05 06:37:01;;;;;;;2.00;1.00;;;;;;;5.29;76.17;96898.61;105687;1259;74167;-27
2024/02/05 06:39:28;;;;;;;1.90;0.80;;;;;;;5.23;76.63;96864.06;105629;1256;72694;-28
2024/02/05 06:41:55;;;;;;;1.30;0.80;;;;;;;5.50;76.25;96885.41;105516;1252;61186;-27
2024/02/05 06:44:22;;;;;;;2.40;0.90;;;;;;;5.55;75.90;96888.23;105578;1257;61105;-27
2024/02/05 06:46:49;;;;;;;2.90;0.90;;;;;;;5.28;76.86;96858.29;105552;1254;73885;-27
2024/02/05 06:49:16;;;;;;;2.00;0.90;;;;;;;5.25;78.05;96885.02;105641;1254;74307;-27
2024/02/05 06:51:44;;;;;;;2.20;1.10;;;;;;;5.34;77.15;96877.46;105765;1255;72621;-28
2024/02/05 06:54:11;;;;;;;1.40;0.90;;;;;;;5.46;76.31;96871.11;105513;1252;61081;-27
2024/02/05 06:56:38;;;;;;;1.50;1.00;;;;;;;5.34;77.02;96885.73;105557;1256;61160;-28
2024/02/05 06:59:05;;;;;;;1.30;0.90;;;;;;;5.28;78.06;96904.13;105543;1254;73643;-28
2024/02/05 07:01:32;;;;;;;1.10;0.90;;;;;;;5.09;79.79;96878.77;105547;1254;74373;-26
2024/02/05 07:03:59;;;;;;;1.20;0.90;;;;;;;5.20;80.65;96886.48;105570;1254;72680;-27
2024/02/05 07:06:26;;;;;;;2.50;0.70;;;;;;;5.12;81.04;96876.34;105580;1254;61156;-26
2024/02/05 07:08:54;;;;;;;2.50;0.80;;;;;;;5.00;81.88;96883.35;105575;1260;61170;-26
2024/02/05 07:11:21;;;;;;;1.50;0.80;;;;;;;4.72;83.69;96876.66;105598;1254;73536;-26
2024/02/05 07:13:48;;;;;;;1.00;0.80;;;;;;;4.91;84.29;96889.63;105511;1259;74677;-27
2024/02/05 07:16:17;;;;;;;1.30;1.00;;;;;;;5.10;83.18;96875.77;105512;1254;72730;-26
2024/02/05 07:18:46;;;;;;;1.20;0.80;;;;;;;5.11;82.75;96879.52;105547;1254;61034;-26
2024/02/05 07:21:13;;;;;;;1.00;0.70;;;;;;;4.90;83.32;96868.66;105517;1256;61145;-26
2024/02/05 07:23:41;;;;;;;3.10;1.10;;;;;;;5.00;82.51;96861.71;105516;1254;73887;-27
2024/02/05 07:26:08;;;;;;;2.10;1.00;;;;;;;5.19;80.25;96819.16;105841;1257;74215;-26
2024/02/05 07:28:35;;;;;;;1.20;0.80;;;;;;;5.28;80.31;96867.70;105913;1253;73026;-26
2024/02/05 07:31:02;;;;;;;2.10;1.00;;;;;;;5.19;80.32;96855.96;105764;1254;61943;-26
2024/02/05 07:33:30;;;;;;;0.60;0.60;;;;;;;5.10;80.64;96852.21;105615;1254;62173;-27
2024/02/05 07:35:58;;;;;;;0.80;0.70;;;;;;;5.28;79.16;96833.96;105807;1257;75590;-26
2024/02/05 07:38:26;;;;;;;1.30;0.90;;;;;;;5.40;78.39;96841.46;105553;1259;75968;-27
2024/02/05 07:40:53;;;;;;;1.70;0.80;;;;;;;5.33;78.73;96862.20;105859;1253;74402;-27
2024/02/05 07:43:21;;;;;;;0.70;0.60;;;;;;;5.19;79.35;96861.16;105831;1254;60991;-27
2024/02/05 07:45:48;;;;;;;1.60;0.90;;;;;;;5.43;78.21;96843.89;105578;1257;61156;-27
2024/02/05 07:48:15;;;;;;;1.30;0.60;;;;;;;5.54;76.95;96841.47;105630;1254;73667;-28
2024/02/05 07:50:42;;;;;;;1.90;1.00;;;;;;;5.53;76.88;96841.20;105531;1257;74564;-28
2024/02/05 07:53:10;;;;;;;2.10;0.80;;;;;;;5.43;77.05;96831.36;105532;1254;72653;-28
2024/02/05 07:55:39;;;;;;;1.00;0.80;;;;;;;5.39;77.76;96846.23;105452;1254;62756;-28
2024/02/05 07:58:06;;;;;;;1.10;0.70;;;;;;;5.72;75.80;96831.45;105554;1259;61141;-28
2024/02/05 08:00:34;;;;;;;1.80;0.70;;;;;;;5.72;75.58;96844.20;105422;1254;73842;-28
2024/02/05 08:03:01;;;;;;;1.20;0.80;;;;;;;5.71;76.07;96831.96;105529;1256;74253;-29
2024/02/05 08:05:28;;;;;;;1.10;0.80;;;;;;;5.48;76.44;96802.45;105741;1256;72705;-29
2024/02/05 08:07:56;;;;;;;1.20;1.00;;;;;;;5.68;75.63;96821.76;105549;1254;61167;-29
2024/02/05 08:10:25;;;;;;;0.80;0.80;;;;;;;5.94;74.43;96805.67;105676;1254;61128;-28
2024/02/05 08:12:52;;;;;;;0.80;0.70;;;;;;;5.99;74.31;96837.20;105532;1254;74252;-28
2024/02/05 08:15:19;;;;;;;0.70;0.60;;;;;;;5.85;75.31;96843.98;105842;1256;76267;-28
2024/02/05 08:17:47;;;;;;;1.40;0.70;;;;;;;5.68;75.62;96827.45;105934;1257;72531;-28
2024/02/05 08:20:14;;;;;;;1.50;0.70;;;;;;;5.89;74.29;96830.34;105885;1254;61076;-28
2024/02/05 08:22:41;;;;;;;1.10;0.50;;;;;;;6.16;73.80;96847.11;105941;1254;61093;-28
2024/02/05 08:25:09;;;;;;;1.20;1.10;;;;;;;6.03;73.88;96832.52;105882;1254;75612;-28
2024/02/05 08:27:36;;;;;;;3.00;0.80;;;;;;;5.90;75.70;96862.98;105545;1259;74372;-28
2024/02/05 08:30:04;;;;;;;0.50;0.50;;;;;;;5.46;79.05;96835.52;105521;1255;72473;-28
2024/02/05 08:32:32;;;;;;;0.60;0.60;;;;;;;5.51;80.89;96875.48;105594;1254;62622;-28
2024/02/05 08:34:59;;;;;;;0.60;0.40;;;;;;;5.55;80.05;96876.65;105560;1257;62214;-28
2024/02/05 08:37:27;;;;;;;0.60;0.50;;;;;;;5.38;79.50;96870.13;105846;1258;73807;-28
2024/02/05 08:39:57;;;;;;;1.80;0.40;;;;;;;5.41;79.35;96837.21;105572;1255;74192;-28
2024/02/05 08:42:24;;;;;;;0.40;0.40;;;;;;;5.57;79.22;96872.52;105539;1255;72745;-28
2024/02/05 08:45:00;;;;;;;0.30;0.30;;;;;;;5.82;77.96;96847.91;105576;1254;61811;-28
2024/02/05 08:47:33;;;;;;;0.40;0.40;;;;;;;5.77;77.39;96842.54;105753;1260;61741;-29
2024/02/05 08:50:01;;;;;;;1.20;0.50;;;;;;;5.72;77.93;96846.96;105585;1254;73986;-28
2024/02/05 08:52:28;;;;;;;0.30;0.30;;;;;;;5.73;77.92;96863.95;105657;1256;74191;-28
2024/02/05 08:54:56;;;;;;;0.50;0.30;;;;;;;6.10;76.87;96850.95;105524;1255;74486;-28
2024/02/05 08:57:23;;;;;;;0.70;0.50;;;;;;;6.22;75.93;96836.39;105569;1254;61103;-28
2024/02/05 08:59:50;;;;;;;0.40;0.30;;;;;;;6.02;75.87;96855.48;105489;1256;61138;-28
2024/02/05 09:02:18;;;;;;;0.50;0.50;;;;;;;5.96;77.12;96864.35;105613;1256;74860;-28
2024/02/05 09:04:46;;;;;;;0.50;0.50;;;;;;;5.73;77.58;96863.61;105849;1254;75164;-28
2024/02/05 09:07:14;;;;;;;0.30;0.30;;;;;;;6.01;76.89;96855.80;105809;1257;74515;-28
2024/02/05 09:09:42;;;;;;;0.60;0.50;;;;;;;5.90;77.11;96872.00;105611;1255;61164;-29
2024/02/05 09:12:09;;;;;;;0.30;0.30;;;;;;;5.55;77.60;96846.73;105844;1257;61154;-28
2024/02/05 09:14:37;;;;;;;0.30;0.30;;;;;;;5.51;78.02;96870.83;105517;1258;74523;-29
2024/02/05 09:17:04;;;;;;;0.70;0.50;;;;;;;5.52;78.76;96881.63;105556;1259;76197;-28
2024/02/05 09:19:32;;;;;;;0.30;0.30;;;;;;;5.97;78.11;96894.59;105531;1256;72615;-29
2024/02/05 09:22:00;;;;;;;0.50;0.50;;;;;;;5.70;79.39;96875.58;105308;1260;62048;-28
2024/02/05 09:24:27;;;;;;;0.70;0.50;;;;;;;5.60;80.20;96874.64;105534;1257;61137;-28
2024/02/05 09:26:54;;;;;;;0.40;0.40;;;;;;;5.58;80.48;96857.60;105533;1256;74262;-28
2024/02/05 09:29:24;;;;;;;1.70;1.00;;;;;;;5.94;79.01;96866.80;105553;1254;75961;-28
2024/02/05 09:31:53;;;;;;;0.50;0.50;;;;;;;6.08;78.91;96859.39;105798;1257;72669;-26
2024/02/05 09:34:21;;;;;;;0.50;0.30;;;;;;;5.98;79.35;96840.87;105735;1257;61062;-26
2024/02/05 09:36:48;;;;;;;0.50;0.50;;;;;;;5.66;81.89;96856.85;105890;1257;61953;-26
2024/02/05 09:39:15;;;;;;;0.50;0.50;;;;;;;5.59;82.10;96848.55;105809;1256;75341;-27
2024/02/05 09:41:43;;;;;;;0.30;0.30;;;;;;;5.96;80.93;96853.45;105713;1254;75375;-27
2024/02/05 09:44:10;;;;;;;0.90;0.50;;;;;;;5.94;80.80;96834.89;105842;1257;72445;-27
2024/02/05 09:46:38;;;;;;;0.50;0.50;;;;;;;5.82;80.77;96830.52;105646;1253;61452;-27
2024/02/05 09:49:05;;;;;;;0.60;0.60;;;;;;;5.74;81.49;96829.58;105610;1257;61113;-27
2024/02/05 09:51:33;;;;;;;0.60;0.60;;;;;;;6.00;80.47;96832.95;105870;1252;72606;-28
2024/02/05 09:54:01;;;;;;;0.30;0.30;;;;;;;5.94;79.41;96808.73;105511;1259;188645;-27
2024/02/05 09:56:44;;;;;;;1.10;0.60;;;;;;;5.87;80.23;96827.49;105526;1254;73378;-28
2024/02/05 09:59:11;;;;;;;0.40;0.40;;;;;;;5.69;80.57;96821.82;105749;1252;63027;-28
2024/02/05 10:01:39;;;;;;;0.50;0.50;;;;;;;5.96;80.00;96816.51;105544;1256;61172;-29
2024/02/05 10:04:08;;;;;;;0.70;0.60;;;;;;;6.01;79.12;96822.14;105447;1260;75848;-29
2024/02/05 10:06:38;;;;;;;0.70;0.60;;;;;;;5.94;79.26;96814.55;105530;1259;75708;-29
2024/02/05 10:09:10;;;;;;;1.00;0.50;;;;;;;5.75;80.49;96819.83;105621;1260;72358;-29
2024/02/05 10:11:42;;;;;;;0.70;0.70;;;;;;;5.66;81.35;96787.28;105567;1255;62019;-26
2024/02/05 10:14:10;;;;;;;0.60;0.60;;;;;;;5.43;82.90;96852.88;105354;1259;61190;-25
2024/02/05 10:16:41;;;;;;;0.50;0.20;;;;;;;4.51;82.48;96922.45;105515;1259;75475;-25
2024/02/05 10:19:09;;;;;;;0.10;0.10;;;;;;;2.24;85.34;96907.89;105574;1256;76224;-26
2024/02/05 10:21:36;;;;;;;0.10;0.10;;;;;;;1.80;87.62;96935.14;105553;1257;74258;-26
2024/02/05 10:24:04;;;;;;;0.20;0.20;;;;;;;1.55;89.29;96936.06;105614;1266;61111;-27
2024/02/05 10:26:31;;;;;;;0.20;0.20;;;;;;;1.45;89.94;96949.54;105532;1254;61162;-27
2024/02/05 10:29:06;;;;;;;0.30;0.30;;;;;;;1.16;92.14;96942.36;105528;1255;75498;-27
2024/02/05 10:31:33;;;;;;;0.10;0.10;;;;;;;1.71;90.50;96947.88;105502;1257;76012;-27
2024/02/05 10:34:01;;;;;;;0.10;0.10;;;;;;;1.99;89.15;96940.17;105540;1254;73613;-26
2024/02/05 10:36:29;;;;;;;0.10;0.10;;;;;;;2.14;88.53;96941.01;105628;1257;62263;-26
2024/02/05 10:38:56;;;;;;;0.20;0.20;;;;;;;2.08;88.64;96933.17;105601;1256;61144;-25
2024/02/05 10:41:23;;;;;;;0.20;0.20;;;;;;;1.89;89.71;96939.05;105591;1257;75478;-25
2024/02/05 10:43:50;;;;;;;0.20;0.20;;;;;;;1.96;89.50;96944.02;105799;1257;76147;-26
2024/02/05 10:46:17;;;;;;;0.20;0.20;;;;;;;1.82;90.36;96957.91;105567;1255;72000;-26
2024/02/05 10:48:45;;;;;;;0.20;0.20;;;;;;;1.82;90.86;96954.19;105527;1257;63090;-26
2024/02/05 10:51:13;;;;;;;0.20;0.20;;;;;;;2.16;89.55;96934.33;105502;1260;61726;-25
2024/02/05 10:53:42;;;;;;;0.20;0.20;;;;;;;2.91;86.31;96945.26;105552;1259;74286;-26
2024/02/05 10:56:09;;;;;;;0.10;0.10;;;;;;;2.86;84.85;96936.71;105415;1257;74142;-26
2024/02/05 10:58:41;;;;;;;0.10;0.10;;;;;;;2.68;85.43;96925.84;105555;1254;72600;-25
2024/02/05 11:01:08;;;;;;;0.20;0.20;;;;;;;2.55;84.68;96913.95;105514;1266;61688;-25
2024/02/05 11:03:37;;;;;;;0.20;0.20;;;;;;;2.35;85.26;96920.38;105559;1259;62153;-26
2024/02/05 11:06:05;;;;;;;0.10;0.10;;;;;;;2.22;85.13;96924.35;105576;1260;73837;-25
2024/02/05 11:08:35;;;;;;;0.20;0.20;;;;;;;2.11;85.53;96936.46;105638;1254;76200;-26
2024/02/05 11:11:09;;;;;;;0.20;0.20;;;;;;;2.06;85.43;96916.02;105561;1254;73141;-25
2024/02/05 11:13:54;;;;;;;0.30;0.30;;;;;;;2.51;83.79;96922.65;105588;1254;61382;-26
2024/02/05 11:16:21;;;;;;;0.20;0.20;;;;;;;2.95;80.97;96908.02;105524;1259;61981;-26
2024/02/05 11:19:48;;;;;;;0.20;0.20;;;;;;;2.75;81.94;96912.13;102709;1290;600047;-24
2024/02/05 11:22:17;;;;;;;0.30;0.30;;;;;;;2.64;82.38;96917.00;104784;1264;62820;-27
2024/02/05 11:24:46;;;;;;;0.60;0.30;;;;;;;2.55;82.82;96923.91;104847;1264;61797;-27
2024/02/05 11:27:14;;;;;;;0.20;0.20;;;;;;;2.60;82.41;96919.73;104905;1271;75001;-26
2024/02/05 11:29:43;;;;;;;0.30;0.30;;;;;;;2.64;82.98;96922.45;104853;1264;77318;-23
2024/02/05 11:32:11;;;;;;;2.80;0.30;;;;;;;2.64;83.19;96926.61;104855;1266;72778;-23
2024/02/05 11:34:42;;;;;;;1.20;0.30;;;;;;;3.14;81.98;96937.96;104988;1263;200266;-23
2024/02/05 11:37:16;;;;;;;0.20;0.20;;;;;;;3.60;79.30;96929.81;105139;1256;61682;-23